createdAt,value
2022-08-11T00:00:36.052Z,72.50
2022-08-11T00:03:23.044Z,72.30
2022-08-11T00:06:32.743Z,71.70
2022-08-11T00:09:22.137Z,72.10
2022-08-11T00:12:16.949Z,72.00
2022-08-11T00:15:04.012Z,71.90
2022-08-11T00:17:51.847Z,71.50
2022-08-11T00:20:42.383Z,71.60
2022-08-11T00:23:29.277Z,71.20
2022-08-11T00:26:17.636Z,71.40
2022-08-11T00:29:11.204Z,71.60
2022-08-11T00:32:02.085Z,70.80
2022-08-11T00:34:49.631Z,71.40
2022-08-11T00:37:38.053Z,71.40
2022-08-11T00:40:29.365Z,71.50
2022-08-11T00:43:23.607Z,71.80
2022-08-11T00:46:18.507Z,71.90
2022-08-11T00:49:17.294Z,71.30
2022-08-11T00:52:18.534Z,71.50
2022-08-11T00:55:47.182Z,71.60
2022-08-11T00:59:35.249Z,71.60
2022-08-11T01:02:40.444Z,71.90
2022-08-11T01:05:43.835Z,71.30
2022-08-11T01:09:08.646Z,71.70
2022-08-11T01:12:16.894Z,72.10
2022-08-11T01:15:57.084Z,72.20
2022-08-11T01:19:22.906Z,72.20
2022-08-11T01:22:40.731Z,73.30
2022-08-11T01:26:04.503Z,73.00
2022-08-11T01:29:31.731Z,73.20
2022-08-11T01:33:13.098Z,73.80
2022-08-11T01:36:33.400Z,73.80
2022-08-11T01:39:49.726Z,73.90
2022-08-11T01:43:23.360Z,74.50
2022-08-11T01:46:17.395Z,75.50
2022-08-11T01:50:08.992Z,75.90
2022-08-11T01:52:33.595Z,75.90
2022-08-11T01:55:28.813Z,76.70
2022-08-11T01:58:17.984Z,77.60
2022-08-11T02:01:29.184Z,78.00
2022-08-11T02:04:25.827Z,78.70
2022-08-11T02:07:20.587Z,79.10
2022-08-11T02:10:39.644Z,79.90
2022-08-11T02:13:37.263Z,80.00
2022-08-11T02:16:38.598Z,80.60
2022-08-11T02:19:55.629Z,82.50
2022-08-11T02:23:58.685Z,83.10
2022-08-11T02:26:26.247Z,83.00
2022-08-11T02:29:28.973Z,83.00
2022-08-11T02:32:39.657Z,84.00
2022-08-11T02:35:32.745Z,85.50
2022-08-11T02:38:27.580Z,85.00
2022-08-11T02:41:38.127Z,85.10
2022-08-11T02:44:33.617Z,86.10
2022-08-11T02:47:38.266Z,86.80
2022-08-11T02:50:27.732Z,87.40
2022-08-11T02:53:22.244Z,86.70
2022-08-11T02:56:22.816Z,86.90
2022-08-11T02:59:38.455Z,86.70
2022-08-11T03:02:41.117Z,87.10
2022-08-11T03:05:45.991Z,87.60
2022-08-11T03:08:51.214Z,88.50
2022-08-11T03:12:11.050Z,89.10
2022-08-11T03:15:20.477Z,89.70
2022-08-11T03:18:26.809Z,90.00
2022-08-11T03:21:21.599Z,90.20
2022-08-11T03:24:16.508Z,90.40
2022-08-11T03:27:11.025Z,91.00
2022-08-11T03:30:07.046Z,90.90
2022-08-11T03:33:22.141Z,90.90
2022-08-11T03:36:24.104Z,91.40
2022-08-11T03:39:20.182Z,91.40
2022-08-11T03:42:17.495Z,91.50
2022-08-11T03:45:17.797Z,91.50
2022-08-11T03:48:20.836Z,92.10
2022-08-11T03:51:23.975Z,92.30
2022-08-11T03:54:23.412Z,92.00
2022-08-11T03:57:40.708Z,91.90
2022-08-11T04:00:57.076Z,92.00
2022-08-11T04:04:20.125Z,92.20
2022-08-11T04:07:36.836Z,92.70
2022-08-11T04:10:59.844Z,93.20
2022-08-11T04:14:53.045Z,93.50
2022-08-11T04:18:21.891Z,93.60
2022-08-11T04:21:21.396Z,93.70
2022-08-11T04:24:41.880Z,93.90
2022-08-11T04:28:29.165Z,94.00
2022-08-11T04:31:51.709Z,94.90
2022-08-11T04:35:00.854Z,95.50
2022-08-11T04:38:44.325Z,95.50
2022-08-11T04:42:12.178Z,95.60
2022-08-11T04:45:25.426Z,95.60
2022-08-11T04:48:44.611Z,95.70
2022-08-11T04:52:37.915Z,95.90
2022-08-11T04:56:04.050Z,96.00
2022-08-11T04:59:23.831Z,96.40
2022-08-11T05:02:50.235Z,96.10
2022-08-11T05:05:56.402Z,96.00
2022-08-11T05:09:12.845Z,96.70
2022-08-11T05:12:10.859Z,96.80
2022-08-11T05:15:17.374Z,96.10
2022-08-11T05:18:31.868Z,96.00
2022-08-11T05:21:45.104Z,94.60
2022-08-11T05:24:59.557Z,94.30
2022-08-11T05:28:12.356Z,92.30
2022-08-11T05:31:19.312Z,91.40
2022-08-11T05:34:29.944Z,90.00
2022-08-11T05:37:27.784Z,88.10
2022-08-11T05:40:34.789Z,85.60
2022-08-11T05:44:20.357Z,83.90
2022-08-11T05:47:05.396Z,82.70
2022-08-11T05:50:13.743Z,81.70
2022-08-11T05:53:21.202Z,81.20
2022-08-11T05:56:20.320Z,79.60
2022-08-11T05:59:14.011Z,77.40
2022-08-11T06:02:03.054Z,75.40
2022-08-11T06:04:58.125Z,74.80
2022-08-11T06:07:48.893Z,73.60
2022-08-11T06:10:37.987Z,73.20
2022-08-11T06:13:27.207Z,71.90
2022-08-11T06:16:16.057Z,69.80
2022-08-11T06:19:03.272Z,68.90
2022-08-11T06:21:53.042Z,70.20
2022-08-11T06:24:42.773Z,70.30
2022-08-11T06:27:33.351Z,69.80
2022-08-11T06:30:39.606Z,69.30
2022-08-11T06:33:32.486Z,68.20
2022-08-11T06:36:35.349Z,66.60
2022-08-11T06:39:28.699Z,66.10
2022-08-11T06:42:26.362Z,64.80
2022-08-11T06:45:26.818Z,65.50
2022-08-11T06:48:18.623Z,65.30
2022-08-11T06:51:14.376Z,63.70
2022-08-11T06:54:05.609Z,63.20
2022-08-11T06:57:40.679Z,63.40
2022-08-11T07:00:30.646Z,62.40
2022-08-11T07:03:23.160Z,61.70
2022-08-11T07:06:29.093Z,61.20
2022-08-11T07:10:21.931Z,61.40
2022-08-11T07:13:44.403Z,61.00
2022-08-11T07:16:34.741Z,60.60
2022-08-11T07:19:44.234Z,61.30
2022-08-11T07:23:05.585Z,60.70
2022-08-11T07:26:12.740Z,60.60
2022-08-11T07:29:01.186Z,61.10
2022-08-11T07:31:52.092Z,60.40
2022-08-11T07:34:45.232Z,59.50
2022-08-11T07:37:34.234Z,59.50
2022-08-11T07:40:23.936Z,60.00
2022-08-11T07:43:12.456Z,59.60
2022-08-11T07:46:16.485Z,59.30
2022-08-11T07:49:21.483Z,58.80
2022-08-11T07:52:28.120Z,59.10
2022-08-11T07:55:17.371Z,58.40
2022-08-11T07:58:22.206Z,58.00
2022-08-11T08:01:30.602Z,57.50
2022-08-11T08:04:37.013Z,58.00
2022-08-11T08:07:42.643Z,57.90
2022-08-11T08:10:49.509Z,58.20
2022-08-11T08:13:54.227Z,58.40
2022-08-11T08:16:59.039Z,59.30
2022-08-11T08:19:49.637Z,58.10
2022-08-11T08:22:39.768Z,58.90
2022-08-11T08:25:29.685Z,58.10
2022-08-11T08:28:18.517Z,57.60
2022-08-11T08:31:04.458Z,57.00
2022-08-11T08:33:52.504Z,56.50
2022-08-11T08:36:43.653Z,56.90
2022-08-11T08:39:34.404Z,56.90
2022-08-11T08:42:27.473Z,57.20
2022-08-11T08:45:16.255Z,57.30
2022-08-11T08:48:06.671Z,56.70
2022-08-11T08:51:16.369Z,56.10
2022-08-11T08:54:07.198Z,55.80
2022-08-11T08:56:57.311Z,55.50
2022-08-11T08:59:51.368Z,55.60
2022-08-11T09:02:38.861Z,55.00
2022-08-11T09:05:27.244Z,55.40
2022-08-11T09:08:14.412Z,54.80
2022-08-11T09:11:20.416Z,54.60
2022-08-11T09:14:14.374Z,55.30
2022-08-11T09:17:01.725Z,54.60
2022-08-11T09:19:55.940Z,54.40
2022-08-11T09:24:02.121Z,54.50
2022-08-11T09:26:30.846Z,54.30
2022-08-11T09:29:19.437Z,54.70
2022-08-11T09:32:07.079Z,54.80
2022-08-11T09:34:54.934Z,54.10
2022-08-11T09:38:00.168Z,53.90
2022-08-11T09:40:52.945Z,54.10
2022-08-11T09:44:04.584Z,53.50
2022-08-11T09:46:54.016Z,53.80
2022-08-11T09:49:44.494Z,53.80
2022-08-11T09:52:35.666Z,53.60
2022-08-11T09:55:22.143Z,53.20
2022-08-11T09:58:42.971Z,53.50
2022-08-11T10:01:29.886Z,53.70
2022-08-11T10:04:20.641Z,54.00
2022-08-11T10:07:10.512Z,54.00
2022-08-11T10:10:02.119Z,54.30
2022-08-11T10:12:51.991Z,54.50
2022-08-11T10:15:38.747Z,55.00
2022-08-11T10:18:49.446Z,54.10
2022-08-11T10:21:42.297Z,54.20
2022-08-11T10:24:46.829Z,54.50
2022-08-11T10:28:18.475Z,51.10
2022-08-11T10:30:58.440Z,50.40
2022-08-11T10:34:02.088Z,48.70
2022-08-11T10:36:50.436Z,48.80
2022-08-11T10:39:38.706Z,49.10
2022-08-11T10:42:57.395Z,49.00
2022-08-11T10:46:10.369Z,49.20
2022-08-11T10:48:58.270Z,49.30
2022-08-11T10:52:03.553Z,48.70
2022-08-11T10:55:10.972Z,49.30
2022-08-11T10:58:15.573Z,48.90
2022-08-11T11:01:03.345Z,48.90
2022-08-11T11:03:52.542Z,48.60
2022-08-11T11:06:47.803Z,48.60
2022-08-11T11:09:40.816Z,48.70
2022-08-11T11:12:51.205Z,49.00
2022-08-11T11:15:56.964Z,49.20
2022-08-11T11:18:44.328Z,48.50
2022-08-11T11:21:51.944Z,48.60
2022-08-11T11:24:48.976Z,48.50
2022-08-11T11:27:46.903Z,48.80
2022-08-11T11:30:42.575Z,47.90
2022-08-11T11:34:06.987Z,48.10
2022-08-11T11:36:48.985Z,48.10
2022-08-11T11:39:37.516Z,48.20
2022-08-11T11:42:24.731Z,47.30
2022-08-11T11:45:24.144Z,47.10
2022-08-11T11:48:13.449Z,47.00
2022-08-11T11:51:01.029Z,47.10
2022-08-11T11:53:48.861Z,47.10
2022-08-11T11:56:36.296Z,46.70
2022-08-11T11:59:41.752Z,46.80
2022-08-11T12:02:29.955Z,46.90
2022-08-11T12:05:17.206Z,46.90
2022-08-11T12:08:15.744Z,47.10
2022-08-11T12:11:18.360Z,46.70
2022-08-11T12:14:10.811Z,46.60
2022-08-11T12:16:58.584Z,46.40
2022-08-11T12:19:48.414Z,46.70
2022-08-11T12:22:54.210Z,47.00
2022-08-11T12:26:23.380Z,46.60
2022-08-11T12:29:08.876Z,46.60
2022-08-11T12:31:58.518Z,46.70
2022-08-11T12:34:46.500Z,47.00
2022-08-11T12:37:36.590Z,47.10
2022-08-11T12:41:13.849Z,47.20
2022-08-11T12:44:08.947Z,46.90
2022-08-11T12:46:57.058Z,47.10
2022-08-11T12:50:05.735Z,47.00
2022-08-11T12:53:12.016Z,47.10
2022-08-11T12:56:20.731Z,46.90
2022-08-11T12:59:27.140Z,46.70
2022-08-11T13:02:35.806Z,46.90
2022-08-11T13:05:24.113Z,47.00
2022-08-11T13:08:11.406Z,47.50
2022-08-11T13:11:18.534Z,48.00
2022-08-11T13:14:06.600Z,47.50
2022-08-11T13:17:11.321Z,47.00
2022-08-11T13:19:59.601Z,46.90
2022-08-11T13:22:50.149Z,46.80
2022-08-11T13:25:39.178Z,46.90
2022-08-11T13:28:26.237Z,47.10
2022-08-11T13:31:14.868Z,46.90
2022-08-11T13:36:54.311Z,46.70
2022-08-11T13:39:47.166Z,46.50
2022-08-11T13:42:33.818Z,46.60
2022-08-11T13:45:23.382Z,47.10
2022-08-11T13:48:13.360Z,46.50
2022-08-11T13:51:17.783Z,46.40
2022-08-11T13:54:06.899Z,46.80
2022-08-11T13:56:57.871Z,46.30
2022-08-11T13:59:52.369Z,46.30
2022-08-11T14:02:43.334Z,46.60
2022-08-11T14:05:35.245Z,46.10
2022-08-11T14:08:37.443Z,46.10
2022-08-11T14:12:21.055Z,46.40
2022-08-11T14:15:08.149Z,46.30
2022-08-11T14:18:03.229Z,46.10
2022-08-11T14:21:11.168Z,46.10
2022-08-11T14:23:59.482Z,46.00
2022-08-11T14:26:51.274Z,45.90
2022-08-11T14:29:48.874Z,46.10
2022-08-11T14:32:53.033Z,45.80
2022-08-11T14:35:44.396Z,45.60
2022-08-11T14:38:31.385Z,45.90
2022-08-11T14:41:36.508Z,45.80
2022-08-11T14:44:41.308Z,45.50
2022-08-11T14:47:30.841Z,45.70
2022-08-11T14:50:23.217Z,45.60
2022-08-11T14:53:17.807Z,45.20
2022-08-11T14:56:24.934Z,45.90
2022-08-11T14:59:12.723Z,45.30
2022-08-11T15:02:19.163Z,45.40
2022-08-11T15:05:07.774Z,45.10
2022-08-11T15:07:58.636Z,45.10
2022-08-11T15:10:45.658Z,45.10
2022-08-11T15:13:33.170Z,45.30
2022-08-11T15:16:37.943Z,45.50
2022-08-11T15:19:40.343Z,46.10
2022-08-11T15:22:45.690Z,45.20
2022-08-11T15:25:35.109Z,45.10
2022-08-11T15:28:40.574Z,45.10
2022-08-11T15:32:02.987Z,45.30
2022-08-11T15:35:14.130Z,45.10
2022-08-11T15:38:03.763Z,45.10
2022-08-11T15:41:13.026Z,44.90
2022-08-11T15:44:58.876Z,45.20
2022-08-11T15:47:42.296Z,45.00
2022-08-11T15:50:32.194Z,44.70
2022-08-11T15:53:26.590Z,44.90
2022-08-11T15:56:15.975Z,44.80
2022-08-11T15:59:41.896Z,44.90
2022-08-11T16:02:48.535Z,44.60
2022-08-11T16:05:45.578Z,44.80
2022-08-11T16:08:35.812Z,44.40
2022-08-11T16:11:24.832Z,44.20
2022-08-11T16:14:30.727Z,44.40
2022-08-11T16:17:20.699Z,44.40
2022-08-11T16:20:09.873Z,44.90
2022-08-11T16:23:02.664Z,44.90
2022-08-11T16:27:02.605Z,45.20
2022-08-11T16:29:02.493Z,45.20
2022-08-11T16:32:10.175Z,45.20
2022-08-11T16:35:16.394Z,45.40
2022-08-11T16:38:22.958Z,44.60
2022-08-11T16:41:13.550Z,44.90
2022-08-11T16:44:19.168Z,45.00
2022-08-11T16:48:02.231Z,44.70
2022-08-11T16:50:31.361Z,44.90
2022-08-11T16:53:18.220Z,45.20
2022-08-11T16:56:06.784Z,45.80
2022-08-11T16:59:14.776Z,45.30
2022-08-11T17:02:07.895Z,45.10
2022-08-11T17:05:14.959Z,45.50
2022-08-11T17:08:24.312Z,45.90
2022-08-11T17:11:30.151Z,45.90
2022-08-11T17:14:35.334Z,46.00
2022-08-11T17:17:28.442Z,46.10
2022-08-11T17:20:39.956Z,46.30
2022-08-11T17:23:40.148Z,46.50
2022-08-11T17:26:52.448Z,46.70
2022-08-11T17:29:55.022Z,46.60
2022-08-11T17:33:05.506Z,46.80
2022-08-11T17:35:53.061Z,46.70
2022-08-11T17:38:41.028Z,47.30
2022-08-11T17:41:45.042Z,46.90
2022-08-11T17:44:51.184Z,47.20
2022-08-11T17:47:56.683Z,47.10
2022-08-11T17:50:45.441Z,47.00
2022-08-11T17:54:15.951Z,47.20
2022-08-11T17:57:29.549Z,47.20
2022-08-11T18:00:17.869Z,47.10
2022-08-11T18:03:23.690Z,47.00
2022-08-11T18:06:15.176Z,47.30
2022-08-11T18:09:20.478Z,47.10
2022-08-11T18:12:26.977Z,47.70
2022-08-11T18:15:32.070Z,47.40
2022-08-11T18:18:36.417Z,47.20
2022-08-11T18:21:44.610Z,47.40
2022-08-11T18:24:52.038Z,47.10
2022-08-11T18:27:59.045Z,47.30
2022-08-11T18:31:08.487Z,47.30
2022-08-11T18:34:20.637Z,47.50
2022-08-11T18:37:31.456Z,47.50
2022-08-11T18:40:38.578Z,47.60
2022-08-11T18:43:48.673Z,47.60
2022-08-11T18:46:56.809Z,47.60
2022-08-11T18:50:05.415Z,47.60
2022-08-11T18:53:13.968Z,48.00
2022-08-11T18:56:19.841Z,48.30
2022-08-11T18:59:26.735Z,48.70
2022-08-11T19:02:33.077Z,49.10
2022-08-11T19:06:06.154Z,49.70
2022-08-11T19:09:23.443Z,49.40
2022-08-11T19:12:28.704Z,50.10
2022-08-11T19:15:33.633Z,50.80
2022-08-11T19:18:40.984Z,51.10
2022-08-11T19:21:48.050Z,51.30
2022-08-11T19:24:56.221Z,51.60
2022-08-11T19:28:01.999Z,51.90
2022-08-11T19:31:06.395Z,52.30
2022-08-11T19:34:11.372Z,52.50
2022-08-11T19:37:15.653Z,53.10
2022-08-11T19:40:24.870Z,53.20
2022-08-11T19:43:30.223Z,53.50
2022-08-11T19:46:37.059Z,53.80
2022-08-11T19:49:41.516Z,54.10
2022-08-11T19:52:47.483Z,54.90
2022-08-11T19:55:53.714Z,55.10
2022-08-11T19:58:58.779Z,55.20
2022-08-11T20:02:13.157Z,55.50
2022-08-11T20:05:18.903Z,56.00
2022-08-11T20:08:24.864Z,56.20
2022-08-11T20:11:32.530Z,56.30
2022-08-11T20:14:38.957Z,56.50
2022-08-11T20:17:45.830Z,56.90
2022-08-11T20:20:50.817Z,57.30
2022-08-11T20:23:58.943Z,57.70
2022-08-11T20:27:07.218Z,57.70
2022-08-11T20:30:24.510Z,58.60
2022-08-11T20:33:29.015Z,58.20
2022-08-11T20:36:35.378Z,58.10
2022-08-11T20:39:41.218Z,58.70
2022-08-11T20:42:47.871Z,59.50
2022-08-11T20:45:57.284Z,59.60
2022-08-11T20:49:02.813Z,59.90
2022-08-11T20:52:08.279Z,60.00
2022-08-11T20:55:19.169Z,60.00
2022-08-11T20:59:02.350Z,59.90
2022-08-11T21:01:57.653Z,59.60
2022-08-11T21:05:02.012Z,60.10
2022-08-11T21:08:13.174Z,60.50
2022-08-11T21:11:27.679Z,61.10
2022-08-11T21:14:34.221Z,61.20
2022-08-11T21:17:44.946Z,61.40
2022-08-11T21:21:07.562Z,61.90
2022-08-11T21:24:22.658Z,63.10
2022-08-11T21:27:29.337Z,64.10
2022-08-11T21:30:34.989Z,65.00
2022-08-11T21:33:39.898Z,65.40
2022-08-11T21:36:44.943Z,65.30
2022-08-11T21:39:50.933Z,66.60
2022-08-11T21:42:58.882Z,66.90
2022-08-11T21:46:05.451Z,66.60
2022-08-11T21:49:10.445Z,66.60
2022-08-11T21:52:17.961Z,66.00
2022-08-11T21:55:22.445Z,66.70
2022-08-11T21:58:27.710Z,67.90
2022-08-11T22:01:34.653Z,68.80
2022-08-11T22:04:39.771Z,69.40
2022-08-11T22:07:44.070Z,69.60
2022-08-11T22:10:48.014Z,69.40
2022-08-11T22:14:00.740Z,69.40
2022-08-11T22:17:12.623Z,69.90
2022-08-11T22:20:17.595Z,69.80
2022-08-11T22:23:22.138Z,70.90
2022-08-11T22:26:27.505Z,71.10
2022-08-11T22:29:49.942Z,70.50
2022-08-11T22:32:57.353Z,70.90
2022-08-11T22:36:03.207Z,70.70
2022-08-11T22:39:09.389Z,70.60
2022-08-11T22:42:13.288Z,70.90
2022-08-11T22:45:17.341Z,71.20
2022-08-11T22:48:24.092Z,71.50
2022-08-11T22:51:28.848Z,71.50
2022-08-11T22:54:34.016Z,72.50
2022-08-11T22:57:40.096Z,72.60
2022-08-11T23:00:44.341Z,73.30
2022-08-11T23:03:51.129Z,72.90
2022-08-11T23:06:56.688Z,73.20
2022-08-11T23:10:00.813Z,73.80
2022-08-11T23:13:05.330Z,74.40
2022-08-11T23:16:10.749Z,74.20
2022-08-11T23:20:06.449Z,74.40
2022-08-11T23:22:49.893Z,75.30
2022-08-11T23:25:55.575Z,75.10
2022-08-11T23:29:01.894Z,75.20
2022-08-11T23:32:11.490Z,75.40
2022-08-11T23:35:38.476Z,75.00
2022-08-11T23:38:43.525Z,75.70
2022-08-11T23:41:47.633Z,74.70
2022-08-11T23:44:51.591Z,74.80
2022-08-11T23:47:57.526Z,75.30
2022-08-11T23:51:03.809Z,75.90
2022-08-11T23:54:09.353Z,76.60
2022-08-11T23:57:13.885Z,75.20
